Lentner, Missouri
Current Conditions -  °F | °C
As of 1:55 AM on Tuesday 21 Oct 2014 (Local Time) from KIRK Reporting Station
Clear Clear  
Wind Chill: 44°   Ceiling: Unl
Heat Index: 44°   Visibility: 10mi
Dew Point: 43°   Wind: 3mph
Humidity: 96%   Direction: 290°WNW
Pressure: 30.07"   Gusts: NA
Location:  39.72°N, 92.15°W
Report Text: KIRK 210655Z AUTO 29003KT 10SM CLR 07/06 A3007 RMK AO2 SLP184 T00670061
Loading
Personal Weather Stations






























Interactive Weather Map
Tropical Storm Tracking
New forecast layout! Learn more

10-Day Weather Forecast

Advertisements
Track Severe Weather on mobile